Latest Weather Observations for Coen Airport

IDQ60801

Issued at 11:32 pm EST Friday 30 January 2015 (issued every 30 minutes, with the page automatically refreshed every 10 minutes)

About weather observations | Map of weather stations | Latest weather observations for QLD | Other Formats
Station Details ID: 027073 Name: COEN AIRPORT Lat: -13.76 Lon: 143.12 Height: 159.3 m
Data from the previous 72 hours. | See also: Recent months at Coen Airport
Date/Time
EST
Temp
°C
App
Temp
°C
Dew
Point
Rel
Hum
%
Delta-T
°C
Wind Press
QNH
hPa
Press
MSL
hPa
Rain
since 9 am
mm
Dir
 
Spd
km/h
Gust
km/h
Spd
kts
Gust
kts
30/11:30pm 25.2 30.7 23.4 90 1.2 CALM 0 0 0 0 1009.2 - 0.0
30/11:00pm 25.5 31.0 23.4 88 1.4 CALM 0 0 0 0 1009.2 - 0.0
30/10:30pm 25.7 31.3 23.6 88 1.4 CALM 0 0 0 0 1009.1 - 0.0
30/10:00pm 25.7 31.2 23.4 87 1.6 CALM 0 0 0 0 1008.8 - 0.0
30/09:30pm 26.3 31.9 23.6 85 1.9 CALM 0 0 0 0 1008.2 - 0.0
30/09:00pm 26.8 31.1 23.3 81 2.4 W 6 7 3 4 1007.6 1006.6 0.0
30/08:30pm 27.3 31.4 22.9 77 3.0 W 6 7 3 4 1007.3 - 0.0
30/08:00pm 27.9 31.1 22.4 72 3.7 WNW 9 13 5 7 1007.1 - 0.0
30/07:30pm 28.6 31.4 22.3 68 4.3 WNW 11 17 6 9 1006.8 - 0.0
30/07:00pm 29.2 31.2 22.2 66 4.8 WSW 15 20 8 11 1006.5 - 0.0
30/06:30pm 30.0 31.3 21.7 61 5.6 SW 17 28 9 15 1006.3 - 0.0
30/06:00pm 30.7 31.1 20.9 56 6.6 W 20 32 11 17 1005.7 1004.7 0.0
30/05:30pm 31.8 31.8 21.6 54 6.9 WNW 24 32 13 17 1005.3 - 0.0
30/05:00pm 32.2 31.8 21.7 54 7.1 W 26 37 14 20 1005.0 - 0.0
30/04:30pm 32.9 32.6 20.4 47 8.4 W 22 30 12 16 1004.7 - 0.0
30/04:00pm 33.3 33.9 22.1 52 7.7 W 22 35 12 19 1004.6 - 0.0
30/03:30pm 33.4 34.3 21.9 51 7.9 W 20 32 11 17 1004.7 - 0.0
30/03:00pm 33.9 34.9 21.0 47 8.8 WSW 17 24 9 13 1004.8 1003.7 0.0
30/02:30pm 33.5 33.8 19.6 44 9.2 W 17 28 9 15 1005.0 - 0.0
30/02:00pm 33.4 33.7 20.5 46 8.7 W 19 26 10 14 1005.5 - 0.0
30/01:30pm 32.0 33.2 21.5 53 7.1 WSW 17 30 9 16 1006.0 - 0.0
30/01:00pm 32.3 34.9 22.7 57 6.6 WSW 13 20 7 11 1006.2 - 0.0
30/12:30pm 31.8 33.1 21.6 54 6.9 SW 17 24 9 13 1006.6 - 0.0
30/12:00pm 31.2 32.9 21.7 57 6.5 W 15 24 8 13 1007.1 1006.1 0.0
30/11:30am 31.5 32.5 22.2 57 6.4 WSW 20 24 11 13 1007.5 - 0.0
30/11:00am 30.7 32.6 22.0 59 5.9 W 15 20 8 11 1007.8 - 0.0
30/10:30am 29.5 32.6 22.2 65 5.0 SW 9 15 5 8 1007.9 - 0.0
30/10:00am 28.9 32.9 23.1 71 4.0 W 7 13 4 7 1008.1 - 0.0
30/09:30am 27.8 32.3 23.6 78 2.9 WSW 6 9 3 5 1008.1 - 0.0
30/09:00am 26.8 32.2 23.9 84 2.0 WNW 2 7 1 4 1008.1 1007.1 0.2
30/08:30am 25.5 31.3 23.9 91 1.1 CALM 0 0 0 0 1008.0 - 0.2
30/08:00am 25.0 29.6 23.8 93 0.8 W 6 11 3 6 1007.9 - 0.2
30/07:30am 24.8 30.5 23.8 94 0.7 CALM 0 0 0 0 1007.6 - 0.2
30/07:00am 24.5 29.7 23.6 95 0.6 NE 2 6 1 3 1007.2 - 0.2
30/06:30am 24.3 29.9 23.6 96 0.5 CALM 0 0 0 0 1006.9 - 0.2
30/06:00am 24.0 29.4 23.3 96 0.5 CALM 0 0 0 0 1006.6 1005.6 0.2
30/05:30am 23.9 29.2 23.0 95 0.6 CALM 0 7 0 4 1006.4 - 0.2
30/05:00am 24.0 29.3 23.0 94 0.7 CALM 0 0 0 0 1006.4 - 0.2
30/04:30am 24.2 29.6 23.2 94 0.7 CALM 0 0 0 0 1006.3 - 0.2
30/04:00am 24.3 29.8 23.4 95 0.6 CALM 0 0 0 0 1006.2 - 0.2
30/03:30am 24.2 29.6 23.2 94 0.7 CALM 0 0 0 0 1006.4 - 0.2
30/03:00am 24.4 28.6 23.2 93 0.8 NNE 6 7 3 4 1006.4 1005.4 0.2
30/02:30am 24.5 29.6 23.3 93 0.8 NNE 2 7 1 4 1006.7 - 0.2
30/02:00am 24.7 30.1 23.3 92 1.0 CALM 0 0 0 0 1006.9 - 0.2
30/01:30am 24.7 29.6 23.1 91 1.1 N 2 7 1 4 1007.0 - 0.2
30/01:00am 24.9 29.2 23.3 91 1.1 N 6 9 3 5 1007.3 - 0.2
30/12:30am 24.9 30.0 23.3 91 1.1 NNW 2 6 1 3 1007.5 - 0.2
30/12:00am 24.7 29.6 23.1 91 1.1 E 2 6 1 3 1007.7 1006.7 0.2
 
Date/Time
EST
Temp
°C
App
Temp
°C
Dew
Point
Rel
Hum
%
Delta-T
°C
Wind Press
QNH
hPa
Press
MSL
hPa
Rain
since 9 am
mm
Dir
 
Spd
km/h
Gust
km/h
Spd
kts
Gust
kts
29/11:30pm 24.6 29.1 23.0 91 1.1 NE 4 6 2 3 1007.9 - 0.2
29/11:00pm 24.6 28.5 23.0 91 1.1 N 7 9 4 5 1008.0 - 0.2
29/10:30pm 24.7 28.8 23.3 92 1.0 N 7 9 4 5 1007.8 - 0.2
29/10:00pm 25.0 30.6 23.6 92 1.0 CALM 0 0 0 0 1007.3 - 0.2
29/09:30pm 25.0 30.6 23.6 92 1.0 CALM 0 0 0 0 1007.2 - 0.2
29/09:00pm 25.1 30.2 23.3 90 1.2 NE 2 6 1 3 1006.9 1005.9 0.2
29/08:30pm 25.3 30.0 23.4 89 1.3 N 4 6 2 3 1006.5 - 0.2
29/08:00pm 25.5 31.0 23.4 88 1.4 CALM 0 0 0 0 1006.3 - 0.2
29/07:30pm 25.7 31.1 23.2 86 1.7 CALM 0 0 0 0 1005.9 - 0.2
29/07:00pm 26.0 30.3 23.3 85 1.8 NW 6 7 3 4 1005.3 - 0.2
29/06:30pm 26.3 31.8 23.4 84 2.0 CALM 0 0 0 0 1004.9 - 0.2
29/06:00pm 26.6 31.9 23.1 81 2.4 CALM 0 0 0 0 1004.6 1003.5 0.2
29/05:30pm 26.7 31.5 22.8 79 2.7 SSE 2 6 1 3 1004.1 - 0.2
29/05:00pm 26.5 30.7 23.2 82 2.3 SSW 6 7 3 4 1004.1 - 0.2
29/04:30pm 26.1 30.3 22.4 80 2.5 WSW 4 9 2 5 1004.3 - 0.2
29/04:00pm 26.1 29.4 22.6 81 2.4 WNW 9 13 5 7 1004.5 - 0.2
29/03:30pm 25.9 29.7 22.8 83 2.1 NNE 7 13 4 7 1005.0 - 0.2
29/03:00pm 25.8 28.1 22.7 83 2.1 N 15 22 8 12 1005.1 1004.0 0.2
29/02:30pm 25.5 27.3 22.6 84 2.0 N 17 24 9 13 1005.6 - 0.2
29/02:00pm 27.3 29.4 22.5 75 3.3 NNW 15 20 8 11 1005.4 - 0.2
29/01:30pm 28.2 30.2 22.9 73 3.6 NW 17 24 9 13 1005.3 - 0.2
29/01:00pm 30.4 34.1 24.5 70 4.1 N 13 19 7 10 1005.5 - 0.2
29/12:30pm 29.0 32.3 23.9 74 3.5 N 13 19 7 10 1005.9 - 0.2
29/12:00pm 29.1 31.7 22.6 68 4.5 WNW 13 15 7 8 1006.2 1005.2 0.2
29/11:30am 28.2 33.7 24.6 81 2.5 SE 4 6 2 3 1006.9 - 0.2
29/11:00am 27.7 32.7 23.9 80 2.6 NW 4 7 2 4 1007.2 - 0.0
29/10:30am 27.2 31.7 23.7 81 2.4 N 6 9 3 5 1007.2 - 0.0
29/10:00am 27.1 32.3 24.2 84 2.0 NNE 4 11 2 6 1007.2 - 0.0
29/09:30am 26.3 30.7 23.8 86 1.7 N 7 9 4 5 1007.2 - 0.0
29/09:00am 25.9 29.8 23.6 87 1.6 N 9 11 5 6 1007.1 1006.1 76.0
29/08:30am 25.7 29.9 23.4 87 1.6 NNE 7 9 4 5 1006.6 - 76.0
29/08:00am 24.9 29.1 23.5 92 1.0 NNE 7 9 4 5 1006.3 - 76.0
29/07:30am 24.6 28.9 23.6 94 0.7 NE 7 9 4 5 1005.9 - 76.0
29/07:00am 24.2 28.3 23.3 95 0.6 NNE 7 9 4 5 1005.7 - 76.0
29/06:30am 23.9 28.0 23.2 96 0.5 N 7 9 4 5 1005.3 - 76.0
29/06:00am 23.8 27.7 22.9 95 0.6 NNE 7 7 4 4 1005.1 - 76.0
29/05:30am 23.7 27.6 23.0 96 0.5 NNE 7 9 4 5 1004.8 - 76.0
29/05:00am 23.6 28.0 22.8 95 0.5 NNE 4 9 2 5 1004.6 - 76.0
29/04:30am 23.7 27.8 22.9 95 0.5 NE 6 7 3 4 1004.3 - 76.0
29/04:00am 23.8 29.0 22.9 95 0.6 CALM 0 0 0 0 1004.2 - 76.0
29/03:30am 23.9 29.3 23.2 96 0.5 CALM 0 0 0 0 1004.3 - 76.0
29/03:00am 23.9 29.3 23.2 96 0.5 CALM 0 0 0 0 1004.8 - 76.0
29/02:30am 23.9 28.1 23.2 96 0.5 NE 6 7 3 4 1004.9 - 76.0
29/02:00am 24.0 29.4 23.3 96 0.5 CALM 0 0 0 0 1005.1 - 76.0
29/01:30am 24.0 29.4 23.3 96 0.5 CALM 0 0 0 0 1005.4 - 76.0
29/01:00am 24.1 29.6 23.4 96 0.5 CALM 0 0 0 0 1005.6 - 76.0
29/12:30am 24.0 29.3 23.1 95 0.6 CALM 0 0 0 0 1005.8 - 76.0
29/12:00am 24.1 29.5 23.2 95 0.6 CALM 0 0 0 0 1006.1 - 76.0
 
Date/Time
EST
Temp
°C
App
Temp
°C
Dew
Point
Rel
Hum
%
Delta-T
°C
Wind Press
QNH
hPa
Press
MSL
hPa
Rain
since 9 am
mm
Dir
 
Spd
km/h
Gust
km/h
Spd
kts
Gust
kts
28/11:30pm 24.1 29.5 23.2 95 0.6 CALM 0 0 0 0 1006.6 - 76.0
28/11:00pm 24.2 29.4 23.5 96 0.5 S 2 7 1 4 1006.8 - 76.0
28/10:30pm 24.1 29.5 23.2 95 0.6 CALM 0 0 0 0 1006.8 - 76.0
28/10:00pm 24.2 29.6 23.3 95 0.6 CALM 0 0 0 0 1006.7 - 76.0
28/09:30pm 24.1 28.3 23.2 95 0.6 S 6 9 3 5 1006.3 - 76.0
28/09:00pm 24.2 29.6 23.3 95 0.6 CALM 0 0 0 0 1005.9 - 76.0
28/08:30pm 24.1 29.6 23.4 96 0.5 CALM 0 0 0 0 1005.2 - 76.0
28/08:00pm 24.2 29.8 23.5 96 0.5 CALM 0 0 0 0 1004.7 - 76.0
28/07:30pm 24.2 28.5 23.3 95 0.6 S 6 7 3 4 1004.5 - 76.0
28/07:00pm 24.2 28.9 23.3 95 0.6 W 4 13 2 7 1004.1 - 76.0
28/06:30pm 24.3 28.7 23.4 95 0.6 SSW 6 7 3 4 1004.0 - 76.0
28/06:00pm 24.2 28.3 23.3 95 0.6 S 7 11 4 6 1003.9 - 76.0
28/05:30pm 24.1 27.7 23.1 94 0.7 SSW 9 15 5 8 1003.4 - 76.0
28/05:00pm 23.9 29.2 23.0 95 0.6 CALM 0 2 0 1 1003.7 - 75.8
28/04:30pm 23.5 26.6 22.8 96 0.5 NE 11 17 6 9 1003.4 - 75.6
28/04:00pm 23.2 26.1 22.5 96 0.5 N 11 15 6 8 1003.3 - 75.2
28/03:30pm 23.1 25.2 22.4 96 0.5 N 15 19 8 10 1003.3 - 75.0
28/03:00pm 23.2 25.7 22.5 96 0.5 NNE 13 15 7 8 1003.5 1002.4 74.8
28/02:30pm 22.9 23.9 22.1 95 0.5 WNW 20 26 11 14 1004.1 - 66.4
28/02:00pm 24.0 24.2 22.8 93 0.8 WSW 26 41 14 22 1004.0 - 34.6
28/01:57pm 24.6 25.3 23.0 91 1.1 SW 24 35 13 19 1004.0 - 27.2
28/01:30pm 29.6 31.4 22.6 66 4.8 E 17 20 9 11 1002.8 - 0.4
28/01:00pm 30.3 34.2 22.5 63 5.3 ENE 6 9 3 5 1003.3 - 0.4
28/12:30pm 30.0 31.8 23.2 67 4.7 W 19 24 10 13 1003.7 - 0.4
28/12:00pm 30.6 33.1 22.5 62 5.5 NNW 13 20 7 11 1004.3 - 0.4
28/11:30am 30.3 33.3 24.0 69 4.4 N 15 20 8 11 1004.7 - 0.4
28/11:00am 29.3 33.2 24.2 74 3.6 NNW 11 19 6 10 1005.3 - 0.4
28/10:30am 27.4 30.4 23.4 79 2.8 NW 13 17 7 9 1005.7 - 0.4
28/10:00am 27.5 29.4 23.5 79 2.8 NNW 19 26 10 14 1006.1 - 0.0
28/09:30am 27.7 30.8 23.5 78 2.9 NW 13 20 7 11 1005.9 - 0.0
28/09:00am 27.9 32.5 24.1 80 2.6 NW 7 15 4 8 1006.0 1005.0 7.2
28/08:30am 27.1 31.0 23.6 81 2.4 NW 9 13 5 7 1005.9 - 7.2
28/08:00am 26.5 32.1 23.6 84 2.0 CALM 0 6 0 3 1005.5 - 7.2
28/07:30am 25.4 30.5 23.3 88 1.4 SE 2 7 1 4 1005.1 - 7.2
28/07:00am 25.1 30.8 23.7 92 1.0 CALM 0 0 0 0 1004.9 - 7.2
28/06:30am 24.8 30.4 23.6 93 0.8 CALM 0 0 0 0 1004.6 - 7.2
28/06:00am 24.9 30.7 23.9 94 0.7 CALM 0 0 0 0 1004.2 1003.2 7.2
28/05:30am 25.0 30.8 24.0 94 0.7 CALM 0 0 0 0 1004.0 - 7.2
28/05:00am 25.0 30.7 23.8 93 0.8 CALM 0 0 0 0 1004.2 - 7.2
28/04:30am 25.0 30.7 23.8 93 0.8 CALM 0 0 0 0 1004.1 - 7.2
28/04:00am 25.2 30.7 24.0 93 0.8 W 2 7 1 4 1003.9 - 7.2
28/03:30am 25.2 29.5 23.6 91 1.1 WNW 7 9 4 5 1003.8 - 7.0
28/03:00am 25.4 31.4 24.2 93 0.8 CALM 0 6 0 3 1004.0 1003.0 7.0
28/02:30am 25.5 30.4 24.3 93 0.8 N 6 9 3 5 1004.0 - 7.0
28/02:00am 25.6 31.7 24.4 93 0.8 CALM 0 6 0 3 1004.6 - 7.0
28/01:30am 25.6 30.5 24.6 94 0.7 N 7 13 4 7 1005.0 - 7.0
28/01:00am 25.6 30.4 24.4 93 0.8 N 7 11 4 6 1005.5 - 7.0
28/12:30am 25.6 31.7 24.4 93 0.8 CALM 0 0 0 0 1005.4 - 7.0
28/12:00am 25.6 30.5 24.4 93 0.8 NNE 6 9 3 5 1005.8 1004.8 7.0

Other Formats:

Comma delimited format used in spreadsheet applications
http://www.bom.gov.au/fwo/IDQ60801/IDQ60801.94183.axf

JavaScript Object Notation format (JSON) in row-major order
http://www.bom.gov.au/fwo/IDQ60801/IDQ60801.94183.json